KPXE

Perry-Houston County Airport

Perry, Georgia, USA
METAR KPXE 170555Z AUTO 36004KT 10SM BKN060 OVC070 22/21 A3011 RMK AO2 LTG DSNT E T02210206 10248 20218
Observed Flight Rules
Oct-17 @ 05:55 UTC (24 minutes ago) Visual Flight Rules
Wind Visibility Clouds
360° at 4 knots 10 miles
  • Broken at 6,000' AGL
  • Overcast at 7,000' AGL
Temperatures Readings
Current 22°C / 72°F
Dewpoint 21°C / 70°F
Humidity 94%
Altimeter 30.11" Hg
Pressure 1020 hPa
Elevation 127
METAR KPXE 170555Z AUTO 36004KT 10SM BKN060 OVC070 22/21 A3011 RMK AO2 LTG DSNT E T02210206 10248 20218
Observed Flight Rules
Oct-17 @ 05:55 UTC
(24 minutes ago)
VFR
Wind Visibility
360° at 4 knots 10 miles
Clouds
  • Broken at 6,000' AGL
  • Overcast at 7,000' AGL
Temperature Dewpoint
22°C / 72°F 21°C / 70°F
Humidity Altimeter Pressure
94% 30.11" Hg 1020 hPa